sensor_id;sensor_type;location;lat;lon;timestamp;pressure;altitude;pressure_sealevel;temperature;humidity
23303;BME280;11820;48.738;9.092;2023-03-21T00:00:33;96496.34;;;10.92;nan
23303;BME280;11820;48.738;9.092;2023-03-21T00:02:58;96501.91;;;10.96;nan
23303;BME280;11820;48.738;9.092;2023-03-21T00:05:24;96496.41;;;11.05;nan
23303;BME280;11820;48.738;9.092;2023-03-21T00:07:49;96494.63;;;11.06;nan
23303;BME280;11820;48.738;9.092;2023-03-21T00:10:15;96498.00;;;11.00;nan
23303;BME280;11820;48.738;9.092;2023-03-21T00:12:40;96492.38;;;10.96;nan
23303;BME280;11820;48.738;9.092;2023-03-21T00:15:08;96493.97;;;10.97;nan
23303;BME280;11820;48.738;9.092;2023-03-21T00:17:33;96494.38;;;10.94;nan
23303;BME280;11820;48.738;9.092;2023-03-21T00:20:02;96489.09;;;10.81;nan
23303;BME280;11820;48.738;9.092;2023-03-21T00:22:33;96490.19;;;10.66;nan
23303;BME280;11820;48.738;9.092;2023-03-21T00:24:58;96487.66;;;10.72;nan
23303;BME280;11820;48.738;9.092;2023-03-21T00:27:24;96479.88;;;10.72;nan
23303;BME280;11820;48.738;9.092;2023-03-21T00:29:49;96483.41;;;10.65;nan
23303;BME280;11820;48.738;9.092;2023-03-21T00:32:15;96480.06;;;10.43;nan
23303;BME280;11820;48.738;9.092;2023-03-21T00:34:41;96475.88;;;10.70;nan
23303;BME280;11820;48.738;9.092;2023-03-21T00:37:07;96470.75;;;10.76;nan
23303;BME280;11820;48.738;9.092;2023-03-21T00:39:34;96468.78;;;10.78;nan
23303;BME280;11820;48.738;9.092;2023-03-21T00:41:59;96465.59;;;10.76;nan
23303;BME280;11820;48.738;9.092;2023-03-21T00:44:24;96464.81;;;10.76;nan
23303;BME280;11820;48.738;9.092;2023-03-21T00:46:50;96462.63;;;10.52;nan
23303;BME280;11820;48.738;9.092;2023-03-21T00:49:16;96455.91;;;10.57;nan
23303;BME280;11820;48.738;9.092;2023-03-21T00:51:41;96453.75;;;10.61;nan
23303;BME280;11820;48.738;9.092;2023-03-21T00:54:13;96450.78;;;10.64;nan
23303;BME280;11820;48.738;9.092;2023-03-21T00:56:38;96449.84;;;10.71;nan
23303;BME280;11820;48.738;9.092;2023-03-21T00:59:03;96450.81;;;10.70;nan
23303;BME280;11820;48.738;9.092;2023-03-21T01:01:29;96450.38;;;10.60;nan
23303;BME280;11820;48.738;9.092;2023-03-21T01:03:59;96446.97;;;10.60;nan
23303;BME280;11820;48.738;9.092;2023-03-21T01:06:30;96447.63;;;10.68;nan
23303;BME280;11820;48.738;9.092;2023-03-21T01:08:56;96441.31;;;10.77;nan
23303;BME280;11820;48.738;9.092;2023-03-21T01:11:25;96437.63;;;10.59;nan
23303;BME280;11820;48.738;9.092;2023-03-21T01:13:51;96446.41;;;10.64;nan
23303;BME280;11820;48.738;9.092;2023-03-21T01:16:17;96440.88;;;10.67;nan
23303;BME280;11820;48.738;9.092;2023-03-21T01:18:42;96441.63;;;10.61;nan
23303;BME280;11820;48.738;9.092;2023-03-21T01:21:11;96438.44;;;10.59;nan
23303;BME280;11820;48.738;9.092;2023-03-21T01:23:38;96437.06;;;10.63;nan
23303;BME280;11820;48.738;9.092;2023-03-21T01:26:05;96441.09;;;10.45;nan
23303;BME280;11820;48.738;9.092;2023-03-21T01:28:31;96434.97;;;10.52;nan
23303;BME280;11820;48.738;9.092;2023-03-21T01:30:59;96440.16;;;10.52;nan
23303;BME280;11820;48.738;9.092;2023-03-21T01:33:25;96435.59;;;10.54;nan
23303;BME280;11820;48.738;9.092;2023-03-21T01:35:51;96439.69;;;10.42;nan
23303;BME280;11820;48.738;9.092;2023-03-21T01:38:16;96431.56;;;10.45;nan
23303;BME280;11820;48.738;9.092;2023-03-21T01:40:44;96442.66;;;10.39;nan
23303;BME280;11820;48.738;9.092;2023-03-21T01:43:28;96431.38;;;10.47;nan
23303;BME280;11820;48.738;9.092;2023-03-21T01:48:32;96430.53;;;10.67;nan
23303;BME280;11820;48.738;9.092;2023-03-21T01:50:59;96425.56;;;10.72;nan
23303;BME280;11820;48.738;9.092;2023-03-21T01:53:27;96425.22;;;10.48;nan
23303;BME280;11820;48.738;9.092;2023-03-21T01:56:01;96421.72;;;10.62;nan
23303;BME280;11820;48.738;9.092;2023-03-21T01:58:27;96419.34;;;10.60;nan
23303;BME280;11820;48.738;9.092;2023-03-21T02:00:55;96422.00;;;10.46;nan
23303;BME280;11820;48.738;9.092;2023-03-21T02:03:20;96413.47;;;10.45;nan
23303;BME280;11820;48.738;9.092;2023-03-21T02:05:59;96413.47;;;10.45;nan
23303;BME280;11820;48.738;9.092;2023-03-21T02:08:25;96414.88;;;10.48;nan
23303;BME280;11820;48.738;9.092;2023-03-21T02:10:51;96409.22;;;10.38;nan
23303;BME280;11820;48.738;9.092;2023-03-21T02:13:17;96416.69;;;10.26;nan
23303;BME280;11820;48.738;9.092;2023-03-21T02:15:50;96413.13;;;10.27;nan
23303;BME280;11820;48.738;9.092;2023-03-21T02:18:23;96409.56;;;10.28;nan
23303;BME280;11820;48.738;9.092;2023-03-21T02:21:30;96410.75;;;10.26;nan
23303;BME280;11820;48.738;9.092;2023-03-21T02:27:07;96407.59;;;10.30;nan
23303;BME280;11820;48.738;9.092;2023-03-21T02:37:33;96401.22;;;10.05;nan
23303;BME280;11820;48.738;9.092;2023-03-21T02:40:20;96385.84;;;10.18;nan
23303;BME280;11820;48.738;9.092;2023-03-21T02:45:21;96393.53;;;10.12;nan
23303;BME280;11820;48.738;9.092;2023-03-21T02:47:57;96392.44;;;10.21;nan
23303;BME280;11820;48.738;9.092;2023-03-21T02:50:38;96391.63;;;10.20;nan
23303;BME280;11820;48.738;9.092;2023-03-21T02:53:07;96395.44;;;10.03;nan
23303;BME280;11820;48.738;9.092;2023-03-21T02:55:35;96401.84;;;10.07;nan
23303;BME280;11820;48.738;9.092;2023-03-21T02:58:01;96391.19;;;10.17;nan
23303;BME280;11820;48.738;9.092;2023-03-21T03:00:30;96393.75;;;10.10;nan
23303;BME280;11820;48.738;9.092;2023-03-21T03:02:56;96391.31;;;10.09;nan
23303;BME280;11820;48.738;9.092;2023-03-21T03:05:27;96387.59;;;10.11;nan
23303;BME280;11820;48.738;9.092;2023-03-21T03:10:59;96383.97;;;10.06;nan
23303;BME280;11820;48.738;9.092;2023-03-21T03:14:33;96382.66;;;10.16;nan
23303;BME280;11820;48.738;9.092;2023-03-21T03:17:15;96388.63;;;9.96;nan
23303;BME280;11820;48.738;9.092;2023-03-21T03:20:09;96391.50;;;10.07;nan
23303;BME280;11820;48.738;9.092;2023-03-21T03:22:50;96380.00;;;10.10;nan
23303;BME280;11820;48.738;9.092;2023-03-21T03:25:25;96390.78;;;10.13;nan
23303;BME280;11820;48.738;9.092;2023-03-21T03:27:53;96393.47;;;10.05;nan
23303;BME280;11820;48.738;9.092;2023-03-21T03:30:21;96393.47;;;10.05;nan
23303;BME280;11820;48.738;9.092;2023-03-21T03:32:51;96384.50;;;10.01;nan
23303;BME280;11820;48.738;9.092;2023-03-21T03:35:18;96386.53;;;10.06;nan
23303;BME280;11820;48.738;9.092;2023-03-21T03:37:49;96375.94;;;10.22;nan
23303;BME280;11820;48.738;9.092;2023-03-21T03:40:39;96376.06;;;10.14;nan
23303;BME280;11820;48.738;9.092;2023-03-21T03:43:17;96378.41;;;10.09;nan
23303;BME280;11820;48.738;9.092;2023-03-21T03:45:53;96369.34;;;10.19;nan
23303;BME280;11820;48.738;9.092;2023-03-21T03:48:25;96372.88;;;10.12;nan
23303;BME280;11820;48.738;9.092;2023-03-21T03:51:23;96368.75;;;10.17;nan
23303;BME280;11820;48.738;9.092;2023-03-21T03:53:53;96361.78;;;10.18;nan
23303;BME280;11820;48.738;9.092;2023-03-21T03:56:20;96357.56;;;10.10;nan
23303;BME280;11820;48.738;9.092;2023-03-21T03:58:46;96368.13;;;10.15;nan
23303;BME280;11820;48.738;9.092;2023-03-21T04:01:12;96364.13;;;10.13;nan
23303;BME280;11820;48.738;9.092;2023-03-21T04:03:40;96363.03;;;10.22;nan
23303;BME280;11820;48.738;9.092;2023-03-21T04:06:07;96359.44;;;10.23;nan
23303;BME280;11820;48.738;9.092;2023-03-21T04:08:32;96361.00;;;10.17;nan
23303;BME280;11820;48.738;9.092;2023-03-21T04:10:57;96360.00;;;10.18;nan
23303;BME280;11820;48.738;9.092;2023-03-21T04:13:23;96356.31;;;10.06;nan
23303;BME280;11820;48.738;9.092;2023-03-21T04:15:48;96363.91;;;9.87;nan
23303;BME280;11820;48.738;9.092;2023-03-21T04:18:13;96361.13;;;9.88;nan
23303;BME280;11820;48.738;9.092;2023-03-21T04:20:39;96362.50;;;9.63;nan
23303;BME280;11820;48.738;9.092;2023-03-21T04:23:04;96358.56;;;9.88;nan
23303;BME280;11820;48.738;9.092;2023-03-21T04:25:35;96362.22;;;9.79;nan
23303;BME280;11820;48.738;9.092;2023-03-21T04:28:01;96357.06;;;9.79;nan
23303;BME280;11820;48.738;9.092;2023-03-21T04:30:26;96370.00;;;9.59;nan
23303;BME280;11820;48.738;9.092;2023-03-21T04:32:51;96366.53;;;9.52;nan
23303;BME280;11820;48.738;9.092;2023-03-21T04:35:25;96359.78;;;9.51;nan
23303;BME280;11820;48.738;9.092;2023-03-21T04:37:50;96369.13;;;9.52;nan
23303;BME280;11820;48.738;9.092;2023-03-21T04:40:16;96354.38;;;9.46;nan
23303;BME280;11820;48.738;9.092;2023-03-21T04:42:45;96359.72;;;9.23;nan
23303;BME280;11820;48.738;9.092;2023-03-21T04:45:12;96364.03;;;9.37;nan
23303;BME280;11820;48.738;9.092;2023-03-21T04:47:37;96363.94;;;9.31;nan
23303;BME280;11820;48.738;9.092;2023-03-21T04:50:03;96364.50;;;9.26;nan
23303;BME280;11820;48.738;9.092;2023-03-21T04:52:28;96368.16;;;9.17;nan
23303;BME280;11820;48.738;9.092;2023-03-21T04:54:54;96352.69;;;9.17;nan
23303;BME280;11820;48.738;9.092;2023-03-21T04:57:19;96352.06;;;9.15;nan
23303;BME280;11820;48.738;9.092;2023-03-21T04:59:44;96361.63;;;9.15;nan
23303;BME280;11820;48.738;9.092;2023-03-21T05:02:10;96359.41;;;9.12;nan
23303;BME280;11820;48.738;9.092;2023-03-21T05:04:36;96358.91;;;9.23;nan
23303;BME280;11820;48.738;9.092;2023-03-21T05:07:02;96360.47;;;9.03;nan
23303;BME280;11820;48.738;9.092;2023-03-21T05:09:27;96361.00;;;9.13;nan
23303;BME280;11820;48.738;9.092;2023-03-21T05:11:53;96356.69;;;9.20;nan
23303;BME280;11820;48.738;9.092;2023-03-21T05:14:24;96365.06;;;9.22;nan
23303;BME280;11820;48.738;9.092;2023-03-21T05:16:50;96363.44;;;9.21;nan
23303;BME280;11820;48.738;9.092;2023-03-21T05:19:29;96365.91;;;9.29;nan
23303;BME280;11820;48.738;9.092;2023-03-21T05:22:03;96362.09;;;9.25;nan
23303;BME280;11820;48.738;9.092;2023-03-21T05:24:29;96370.50;;;9.12;nan
23303;BME280;11820;48.738;9.092;2023-03-21T05:26:55;96362.50;;;9.07;nan
23303;BME280;11820;48.738;9.092;2023-03-21T05:29:27;96359.13;;;9.21;nan
23303;BME280;11820;48.738;9.092;2023-03-21T05:31:52;96362.47;;;9.22;nan
23303;BME280;11820;48.738;9.092;2023-03-21T05:34:18;96370.09;;;9.30;nan
23303;BME280;11820;48.738;9.092;2023-03-21T05:36:43;96374.22;;;9.24;nan
23303;BME280;11820;48.738;9.092;2023-03-21T05:39:08;96363.66;;;9.40;nan
23303;BME280;11820;48.738;9.092;2023-03-21T05:41:33;96367.78;;;9.35;nan
23303;BME280;11820;48.738;9.092;2023-03-21T05:43:59;96367.72;;;9.28;nan
23303;BME280;11820;48.738;9.092;2023-03-21T05:46:24;96368.06;;;9.25;nan
23303;BME280;11820;48.738;9.092;2023-03-21T05:48:50;96370.47;;;9.27;nan
23303;BME280;11820;48.738;9.092;2023-03-21T05:51:17;96375.03;;;9.10;nan
23303;BME280;11820;48.738;9.092;2023-03-21T05:53:42;96371.47;;;9.11;nan
23303;BME280;11820;48.738;9.092;2023-03-21T05:56:08;96375.38;;;9.22;nan
23303;BME280;11820;48.738;9.092;2023-03-21T05:58:34;96373.31;;;9.32;nan
23303;BME280;11820;48.738;9.092;2023-03-21T06:01:00;96373.13;;;9.33;nan
23303;BME280;11820;48.738;9.092;2023-03-21T06:03:25;96379.22;;;9.47;nan
23303;BME280;11820;48.738;9.092;2023-03-21T06:05:50;96376.00;;;9.45;nan
23303;BME280;11820;48.738;9.092;2023-03-21T06:08:16;96379.75;;;9.42;nan
23303;BME280;11820;48.738;9.092;2023-03-21T06:10:42;96375.25;;;9.30;nan
23303;BME280;11820;48.738;9.092;2023-03-21T06:13:07;96379.75;;;9.42;nan
23303;BME280;11820;48.738;9.092;2023-03-21T06:15:33;96380.84;;;9.33;nan
23303;BME280;11820;48.738;9.092;2023-03-21T06:17:58;96377.41;;;9.26;nan
23303;BME280;11820;48.738;9.092;2023-03-21T06:20:23;96377.94;;;9.22;nan
23303;BME280;11820;48.738;9.092;2023-03-21T06:22:49;96380.97;;;9.25;nan
23303;BME280;11820;48.738;9.092;2023-03-21T06:25:14;96376.59;;;9.26;nan
23303;BME280;11820;48.738;9.092;2023-03-21T06:27:40;96373.97;;;9.19;nan
23303;BME280;11820;48.738;9.092;2023-03-21T06:30:06;96379.91;;;9.20;nan
23303;BME280;11820;48.738;9.092;2023-03-21T06:32:32;96378.88;;;9.35;nan
23303;BME280;11820;48.738;9.092;2023-03-21T06:34:57;96374.19;;;9.39;nan
23303;BME280;11820;48.738;9.092;2023-03-21T06:37:23;96367.53;;;9.51;nan
23303;BME280;11820;48.738;9.092;2023-03-21T06:39:48;96367.03;;;9.41;nan
23303;BME280;11820;48.738;9.092;2023-03-21T06:42:14;96369.47;;;9.28;nan
23303;BME280;11820;48.738;9.092;2023-03-21T06:44:39;96364.88;;;9.44;nan
23303;BME280;11820;48.738;9.092;2023-03-21T06:47:05;96367.34;;;9.52;nan
23303;BME280;11820;48.738;9.092;2023-03-21T06:49:30;96376.34;;;9.56;nan
23303;BME280;11820;48.738;9.092;2023-03-21T06:51:56;96370.06;;;9.65;nan
23303;BME280;11820;48.738;9.092;2023-03-21T06:54:21;96365.03;;;9.78;nan
23303;BME280;11820;48.738;9.092;2023-03-21T06:56:47;96368.53;;;9.70;nan
23303;BME280;11820;48.738;9.092;2023-03-21T06:59:12;96373.06;;;9.68;nan
23303;BME280;11820;48.738;9.092;2023-03-21T07:01:38;96364.72;;;9.87;nan
23303;BME280;11820;48.738;9.092;2023-03-21T07:04:03;96371.94;;;9.98;nan
23303;BME280;11820;48.738;9.092;2023-03-21T07:06:29;96367.03;;;10.03;nan
23303;BME280;11820;48.738;9.092;2023-03-21T07:08:55;96361.75;;;10.11;nan
23303;BME280;11820;48.738;9.092;2023-03-21T07:11:21;96361.31;;;10.08;nan
23303;BME280;11820;48.738;9.092;2023-03-21T07:13:47;96361.75;;;10.11;nan
23303;BME280;11820;48.738;9.092;2023-03-21T07:16:14;96359.16;;;10.11;nan
23303;BME280;11820;48.738;9.092;2023-03-21T07:18:40;96358.47;;;10.24;nan
23303;BME280;11820;48.738;9.092;2023-03-21T07:21:05;96355.88;;;10.24;nan
23303;BME280;11820;48.738;9.092;2023-03-21T07:23:31;96363.25;;;10.33;nan
23303;BME280;11820;48.738;9.092;2023-03-21T07:25:56;96358.72;;;10.35;nan
23303;BME280;11820;48.738;9.092;2023-03-21T07:28:22;96363.25;;;10.33;nan
23303;BME280;11820;48.738;9.092;2023-03-21T07:30:57;96364.34;;;10.45;nan
23303;BME280;11820;48.738;9.092;2023-03-21T07:33:23;96360.00;;;10.52;nan
23303;BME280;11820;48.738;9.092;2023-03-21T07:35:49;96365.78;;;10.54;nan
23303;BME280;11820;48.738;9.092;2023-03-21T07:38:15;96362.06;;;10.63;nan
23303;BME280;11820;48.738;9.092;2023-03-21T07:40:42;96365.22;;;10.59;nan
23303;BME280;11820;48.738;9.092;2023-03-21T07:43:07;96367.97;;;10.57;nan
23303;BME280;11820;48.738;9.092;2023-03-21T07:45:33;96364.09;;;10.74;nan
23303;BME280;11820;48.738;9.092;2023-03-21T07:47:59;96358.81;;;10.89;nan
23303;BME280;11820;48.738;9.092;2023-03-21T07:50:24;96364.78;;;10.96;nan
23303;BME280;11820;48.738;9.092;2023-03-21T07:52:50;96367.03;;;11.05;nan
23303;BME280;11820;48.738;9.092;2023-03-21T07:55:15;96365.41;;;10.91;nan
23303;BME280;11820;48.738;9.092;2023-03-21T07:57:41;96367.41;;;11.02;nan
23303;BME280;11820;48.738;9.092;2023-03-21T08:00:07;96362.06;;;11.04;nan
23303;BME280;11820;48.738;9.092;2023-03-21T08:02:33;96354.28;;;11.10;nan
23303;BME280;11820;48.738;9.092;2023-03-21T08:04:58;96361.91;;;11.18;nan
23303;BME280;11820;48.738;9.092;2023-03-21T08:07:23;96364.66;;;11.10;nan
23303;BME280;11820;48.738;9.092;2023-03-21T08:09:50;96360.47;;;11.09;nan
23303;BME280;11820;48.738;9.092;2023-03-21T08:12:16;96366.13;;;11.38;nan
23303;BME280;11820;48.738;9.092;2023-03-21T08:14:41;96364.34;;;11.32;nan
23303;BME280;11820;48.738;9.092;2023-03-21T08:17:07;96361.16;;;11.30;nan
23303;BME280;11820;48.738;9.092;2023-03-21T08:19:34;96362.97;;;11.43;nan
23303;BME280;11820;48.738;9.092;2023-03-21T08:21:59;96362.16;;;11.36;nan
23303;BME280;11820;48.738;9.092;2023-03-21T08:24:26;96356.81;;;11.50;nan
23303;BME280;11820;48.738;9.092;2023-03-21T08:26:52;96357.59;;;11.44;nan
23303;BME280;11820;48.738;9.092;2023-03-21T08:29:17;96353.63;;;11.55;nan
23303;BME280;11820;48.738;9.092;2023-03-21T08:31:43;96346.09;;;11.66;nan
23303;BME280;11820;48.738;9.092;2023-03-21T08:34:08;96354.47;;;11.75;nan
23303;BME280;11820;48.738;9.092;2023-03-21T08:36:36;96347.50;;;11.82;nan
23303;BME280;11820;48.738;9.092;2023-03-21T08:39:03;96338.56;;;11.91;nan
23303;BME280;11820;48.738;9.092;2023-03-21T08:41:33;96339.16;;;11.93;nan
23303;BME280;11820;48.738;9.092;2023-03-21T08:43:59;96334.13;;;12.11;nan
23303;BME280;11820;48.738;9.092;2023-03-21T08:46:24;96336.72;;;12.11;nan
23303;BME280;11820;48.738;9.092;2023-03-21T08:48:50;96336.31;;;12.27;nan
23303;BME280;11820;48.738;9.092;2023-03-21T08:51:15;96332.72;;;12.34;nan
23303;BME280;11820;48.738;9.092;2023-03-21T08:53:41;96330.72;;;12.36;nan
23303;BME280;11820;48.738;9.092;2023-03-21T08:56:08;96330.91;;;12.48;nan
23303;BME280;11820;48.738;9.092;2023-03-21T08:58:34;96332.50;;;12.49;nan
23303;BME280;11820;48.738;9.092;2023-03-21T09:01:00;96327.09;;;12.50;nan
23303;BME280;11820;48.738;9.092;2023-03-21T09:03:26;96322.88;;;12.62;nan
23303;BME280;11820;48.738;9.092;2023-03-21T09:05:52;96318.28;;;12.71;nan
23303;BME280;11820;48.738;9.092;2023-03-21T09:08:18;96325.28;;;12.64;nan
23303;BME280;11820;48.738;9.092;2023-03-21T09:10:47;96314.44;;;12.80;nan
23303;BME280;11820;48.738;9.092;2023-03-21T09:13:12;96323.56;;;12.88;nan
23303;BME280;11820;48.738;9.092;2023-03-21T09:15:38;96331.59;;;12.94;nan
23303;BME280;11820;48.738;9.092;2023-03-21T09:18:04;96327.13;;;13.07;nan
23303;BME280;11820;48.738;9.092;2023-03-21T09:20:39;96331.81;;;13.29;nan
23303;BME280;11820;48.738;9.092;2023-03-21T09:23:05;96335.56;;;13.33;nan
23303;BME280;11820;48.738;9.092;2023-03-21T09:25:30;96325.78;;;13.35;nan
23303;BME280;11820;48.738;9.092;2023-03-21T09:27:56;96329.50;;;13.46;nan
23303;BME280;11820;48.738;9.092;2023-03-21T09:30:22;96324.25;;;13.59;nan
23303;BME280;11820;48.738;9.092;2023-03-21T09:32:48;96326.31;;;13.75;nan
23303;BME280;11820;48.738;9.092;2023-03-21T09:35:15;96323.66;;;13.81;nan
23303;BME280;11820;48.738;9.092;2023-03-21T09:37:42;96320.97;;;13.94;nan
23303;BME280;11820;48.738;9.092;2023-03-21T09:40:22;96319.59;;;14.16;nan
23303;BME280;11820;48.738;9.092;2023-03-21T09:43:18;96314.97;;;14.43;nan
23303;BME280;11820;48.738;9.092;2023-03-21T09:45:57;96314.09;;;14.49;nan
23303;BME280;11820;48.738;9.092;2023-03-21T09:48:35;96312.44;;;14.54;nan
23303;BME280;11820;48.738;9.092;2023-03-21T09:51:04;96305.19;;;14.56;nan
23303;BME280;11820;48.738;9.092;2023-03-21T09:53:37;96314.81;;;14.91;nan
23303;BME280;11820;48.738;9.092;2023-03-21T09:56:07;96311.38;;;15.09;nan
23303;BME280;11820;48.738;9.092;2023-03-21T09:58:39;96303.19;;;15.05;nan
23303;BME280;11820;48.738;9.092;2023-03-21T10:01:13;96305.00;;;15.23;nan
23303;BME280;11820;48.738;9.092;2023-03-21T10:03:53;96296.91;;;15.31;nan
23303;BME280;11820;48.738;9.092;2023-03-21T10:06:21;96294.72;;;15.57;nan
23303;BME280;11820;48.738;9.092;2023-03-21T10:08:54;96291.69;;;15.72;nan
23303;BME280;11820;48.738;9.092;2023-03-21T10:11:27;96284.31;;;15.80;nan
23303;BME280;11820;48.738;9.092;2023-03-21T10:14:02;96287.91;;;15.68;nan
23303;BME280;11820;48.738;9.092;2023-03-21T10:19:27;96282.28;;;16.17;nan
23303;BME280;11820;48.738;9.092;2023-03-21T10:21:52;96289.00;;;16.13;nan
23303;BME280;11820;48.738;9.092;2023-03-21T10:24:24;96284.03;;;16.23;nan
23303;BME280;11820;48.738;9.092;2023-03-21T10:26:52;96283.66;;;16.53;nan
23303;BME280;11820;48.738;9.092;2023-03-21T10:29:22;96284.47;;;16.42;nan
23303;BME280;11820;48.738;9.092;2023-03-21T10:31:49;96280.41;;;16.46;nan
23303;BME280;11820;48.738;9.092;2023-03-21T10:34:36;96276.63;;;16.54;nan
23303;BME280;11820;48.738;9.092;2023-03-21T10:37:03;96277.47;;;16.82;nan
23303;BME280;11820;48.738;9.092;2023-03-21T10:39:34;96264.25;;;17.00;nan
23303;BME280;11820;48.738;9.092;2023-03-21T10:42:01;96282.63;;;17.05;nan
23303;BME280;11820;48.738;9.092;2023-03-21T10:44:34;96262.72;;;18.64;nan
23303;BME280;11820;48.738;9.092;2023-03-21T10:47:07;96263.63;;;19.17;nan
23303;BME280;11820;48.738;9.092;2023-03-21T10:49:36;96265.69;;;19.99;nan
23303;BME280;11820;48.738;9.092;2023-03-21T10:52:05;96267.44;;;19.58;nan
23303;BME280;11820;48.738;9.092;2023-03-21T10:54:33;96274.44;;;18.78;nan
23303;BME280;11820;48.738;9.092;2023-03-21T10:57:04;96271.53;;;17.87;nan
23303;BME280;11820;48.738;9.092;2023-03-21T10:59:52;96274.22;;;17.92;nan
23303;BME280;11820;48.738;9.092;2023-03-21T11:02:39;96269.31;;;17.79;nan
23303;BME280;11820;48.738;9.092;2023-03-21T11:05:07;96274.97;;;17.43;nan
23303;BME280;11820;48.738;9.092;2023-03-21T11:07:41;96272.06;;;18.05;nan
23303;BME280;11820;48.738;9.092;2023-03-21T11:10:25;96268.50;;;17.95;nan
23303;BME280;11820;48.738;9.092;2023-03-21T11:12:55;96260.97;;;18.15;nan
23303;BME280;11820;48.738;9.092;2023-03-21T11:15:45;96263.22;;;17.74;nan
23303;BME280;11820;48.738;9.092;2023-03-21T11:18:21;96272.66;;;17.02;nan
23303;BME280;11820;48.738;9.092;2023-03-21T11:21:01;96272.56;;;16.46;nan
23303;BME280;11820;48.738;9.092;2023-03-21T11:23:29;96269.81;;;16.30;nan
23303;BME280;11820;48.738;9.092;2023-03-21T11:25:57;96273.56;;;16.00;nan
23303;BME280;11820;48.738;9.092;2023-03-21T11:28:25;96269.91;;;15.78;nan
23303;BME280;11820;48.738;9.092;2023-03-21T11:30:59;96264.81;;;15.71;nan
23303;BME280;11820;48.738;9.092;2023-03-21T11:33:27;96265.03;;;15.58;nan
23303;BME280;11820;48.738;9.092;2023-03-21T11:36:04;96273.53;;;15.65;nan
23303;BME280;11820;48.738;9.092;2023-03-21T11:38:36;96258.31;;;15.51;nan
23303;BME280;11820;48.738;9.092;2023-03-21T11:41:03;96262.81;;;15.32;nan
23303;BME280;11820;48.738;9.092;2023-03-21T11:43:39;96258.94;;;15.35;nan
23303;BME280;11820;48.738;9.092;2023-03-21T11:46:07;96254.94;;;15.21;nan
23303;BME280;11820;48.738;9.092;2023-03-21T11:48:43;96253.75;;;15.17;nan
23303;BME280;11820;48.738;9.092;2023-03-21T11:55:02;96249.09;;;15.07;nan
23303;BME280;11820;48.738;9.092;2023-03-21T12:05:28;96236.06;;;14.78;nan
23303;BME280;11820;48.738;9.092;2023-03-21T12:08:04;96226.47;;;14.90;nan
23303;BME280;11820;48.738;9.092;2023-03-21T12:11:18;96224.16;;;15.00;nan
23303;BME280;11820;48.738;9.092;2023-03-21T12:14:08;96227.78;;;14.99;nan
23303;BME280;11820;48.738;9.092;2023-03-21T12:16:55;96223.03;;;14.96;nan
23303;BME280;11820;48.738;9.092;2023-03-21T12:22:38;96212.94;;;14.99;nan
23303;BME280;11820;48.738;9.092;2023-03-21T12:25:21;96212.50;;;15.02;nan
23303;BME280;11820;48.738;9.092;2023-03-21T12:28:07;96212.44;;;15.20;nan
23303;BME280;11820;48.738;9.092;2023-03-21T12:36:40;96199.72;;;15.53;nan
23303;BME280;11820;48.738;9.092;2023-03-21T12:44:12;96184.06;;;15.99;nan
23303;BME280;11820;48.738;9.092;2023-03-21T12:46:44;96172.78;;;16.44;nan
23303;BME280;11820;48.738;9.092;2023-03-21T12:49:34;96164.47;;;16.87;nan
23303;BME280;11820;48.738;9.092;2023-03-21T12:52:15;96167.34;;;17.18;nan
23303;BME280;11820;48.738;9.092;2023-03-21T12:54:55;96169.63;;;17.43;nan
23303;BME280;11820;48.738;9.092;2023-03-21T12:57:29;96162.53;;;17.76;nan
23303;BME280;11820;48.738;9.092;2023-03-21T13:00:13;96161.41;;;17.89;nan
23303;BME280;11820;48.738;9.092;2023-03-21T13:02:43;96159.63;;;17.94;nan
23303;BME280;11820;48.738;9.092;2023-03-21T13:05:21;96161.31;;;17.84;nan
23303;BME280;11820;48.738;9.092;2023-03-21T13:10:29;96154.97;;;18.34;nan
23303;BME280;11820;48.738;9.092;2023-03-21T13:18:32;96149.38;;;17.71;nan
23303;BME280;11820;48.738;9.092;2023-03-21T13:21:33;96144.22;;;17.76;nan
23303;BME280;11820;48.738;9.092;2023-03-21T13:24:04;96142.72;;;17.80;nan
23303;BME280;11820;48.738;9.092;2023-03-21T13:26:39;96144.53;;;17.80;nan
23303;BME280;11820;48.738;9.092;2023-03-21T13:29:33;96152.00;;;18.09;nan
23303;BME280;11820;48.738;9.092;2023-03-21T13:32:06;96143.00;;;17.84;nan
23303;BME280;11820;48.738;9.092;2023-03-21T13:34:32;96145.03;;;17.27;nan
23303;BME280;11820;48.738;9.092;2023-03-21T13:37:00;96138.44;;;17.25;nan
23303;BME280;11820;48.738;9.092;2023-03-21T13:39:27;96139.00;;;17.10;nan
23303;BME280;11820;48.738;9.092;2023-03-21T13:41:53;96136.78;;;17.02;nan
23303;BME280;11820;48.738;9.092;2023-03-21T13:44:43;96133.53;;;17.12;nan
23303;BME280;11820;48.738;9.092;2023-03-21T13:47:37;96127.97;;;17.08;nan
23303;BME280;11820;48.738;9.092;2023-03-21T13:50:24;96122.41;;;16.88;nan
23303;BME280;11820;48.738;9.092;2023-03-21T13:55:27;96117.19;;;16.88;nan
23303;BME280;11820;48.738;9.092;2023-03-21T13:57:53;96116.00;;;16.79;nan
23303;BME280;11820;48.738;9.092;2023-03-21T14:00:29;96120.59;;;16.72;nan
23303;BME280;11820;48.738;9.092;2023-03-21T14:02:59;96117.09;;;16.67;nan
23303;BME280;11820;48.738;9.092;2023-03-21T14:05:26;96115.41;;;16.61;nan
23303;BME280;11820;48.738;9.092;2023-03-21T14:07:59;96112.03;;;16.49;nan
23303;BME280;11820;48.738;9.092;2023-03-21T14:10:27;96110.84;;;16.40;nan
23303;BME280;11820;48.738;9.092;2023-03-21T14:12:54;96109.47;;;16.37;nan
23303;BME280;11820;48.738;9.092;2023-03-21T14:15:38;96117.88;;;16.39;nan
23303;BME280;11820;48.738;9.092;2023-03-21T14:18:04;96107.78;;;16.31;nan
23303;BME280;11820;48.738;9.092;2023-03-21T14:20:35;96100.06;;;16.36;nan
23303;BME280;11820;48.738;9.092;2023-03-21T14:23:07;96100.41;;;16.28;nan
23303;BME280;11820;48.738;9.092;2023-03-21T14:25:35;96101.75;;;16.42;nan
23303;BME280;11820;48.738;9.092;2023-03-21T14:28:03;96096.72;;;16.52;nan
23303;BME280;11820;48.738;9.092;2023-03-21T14:30:38;96096.84;;;16.46;nan
23303;BME280;11820;48.738;9.092;2023-03-21T14:35:57;96100.50;;;16.45;nan
23303;BME280;11820;48.738;9.092;2023-03-21T14:38:26;96092.09;;;16.43;nan
23303;BME280;11820;48.738;9.092;2023-03-21T14:40:56;96090.06;;;16.45;nan